Time;durP1;ratioP1;P1;durP2;ratioP2;P2;SDS_P1;SDS_P2;PMS_P1;PMS_P2;Temp;Humidity;BMP_temperature;BMP_pressure;BME280_temperature;BME280_humidity;BME280_pressure;Samples;Min_cycle;Max_cycle;Signal;HPM_P1;HPM_P2
2023/06/12 00:01:16;;;;;;;5.27;4.77;;;17.00;99.90;;;;;;5074085;28;20529;-85
2023/06/12 00:03:44;;;;;;;5.07;4.23;;;17.00;99.90;;;;;;5074572;28;20467;-85
2023/06/12 00:06:11;;;;;;;5.33;3.97;;;16.80;99.90;;;;;;5074310;28;20556;-84
2023/06/12 00:08:42;;;;;;;5.77;4.63;;;16.80;99.90;;;;;;5074783;28;20446;-85
2023/06/12 00:11:12;;;;;;;6.30;4.73;;;16.80;99.90;;;;;;5074861;28;20871;-85
2023/06/12 00:13:39;;;;;;;6.30;4.37;;;16.80;99.90;;;;;;5074802;28;20807;-85
2023/06/12 00:16:06;;;;;;;5.50;4.83;;;16.70;99.90;;;;;;5073917;28;20562;-85
2023/06/12 00:18:36;;;;;;;4.47;3.90;;;16.70;99.90;;;;;;5073995;28;20968;-85
2023/06/12 00:21:03;;;;;;;4.37;3.90;;;16.70;99.90;;;;;;5074773;28;20452;-85
2023/06/12 00:23:30;;;;;;;4.13;3.60;;;16.60;99.90;;;;;;5074586;28;20991;-85
2023/06/12 00:25:57;;;;;;;4.33;3.87;;;16.60;99.90;;;;;;5074193;28;20529;-85
2023/06/12 00:28:23;;;;;;;5.40;4.60;;;16.60;99.90;;;;;;5123953;22;20937;-52
2023/06/12 00:30:50;;;;;;;7.90;4.00;;;16.50;99.90;;;;;;5114218;28;20506;-50
2023/06/12 00:33:17;;;;;;;6.77;4.87;;;16.60;99.90;;;;;;5114279;28;20516;-50
2023/06/12 00:35:47;;;;;;;5.30;4.67;;;16.60;99.90;;;;;;5113960;28;20524;-51
2023/06/12 00:38:14;;;;;;;4.53;3.97;;;16.60;99.90;;;;;;5114146;28;20531;-50
2023/06/12 00:40:41;;;;;;;6.20;4.50;;;16.60;99.90;;;;;;5137567;22;20515;-87
2023/06/12 00:43:09;;;;;;;5.60;4.37;;;16.60;99.90;;;;;;5115093;28;21034;-89
2023/06/12 00:45:37;;;;;;;6.10;4.27;;;16.60;99.90;;;;;;5113683;28;20541;-89
2023/06/12 00:48:06;;;;;;;5.80;4.80;;;16.60;99.90;;;;;;5114763;28;20843;-89
2023/06/12 00:50:34;;;;;;;7.33;4.70;;;16.70;99.90;;;;;;5114039;28;20437;-90
2023/06/12 00:53:03;;;;;;;4.87;4.00;;;16.70;99.90;;;;;;5116079;28;20548;-89
2023/06/12 00:55:32;;;;;;;5.30;4.10;;;16.60;99.90;;;;;;5113704;28;20445;-88
2023/06/12 00:58:01;;;;;;;5.10;4.20;;;16.50;99.90;;;;;;5116202;28;20552;-89
2023/06/12 01:00:28;;;;;;;5.13;4.00;;;16.40;99.90;;;;;;5117562;28;20511;-88
2023/06/12 01:02:58;;;;;;;6.23;4.93;;;16.40;99.90;;;;;;5115450;28;20563;-88
2023/06/12 01:05:32;;;;;;;5.90;4.50;;;16.30;99.90;;;;;;5114785;28;20459;-88
2023/06/12 01:08:09;;;;;;;5.73;4.47;;;16.20;99.90;;;;;;5115252;28;20469;-88
2023/06/12 01:10:42;;;;;;;5.10;3.83;;;16.20;99.90;;;;;;5115351;28;20432;-88
2023/06/12 01:13:11;;;;;;;4.40;3.93;;;16.20;99.90;;;;;;5115545;28;20455;-88
2023/06/12 01:15:38;;;;;;;4.80;3.97;;;16.30;99.90;;;;;;5114587;28;20495;-87
2023/06/12 01:18:06;;;;;;;6.00;4.20;;;16.40;99.90;;;;;;5115253;28;20469;-88
2023/06/12 01:20:34;;;;;;;5.57;4.13;;;16.40;99.90;;;;;;5115818;28;20439;-88
2023/06/12 01:23:15;;;;;;;4.97;4.40;;;16.40;99.90;;;;;;5115719;28;20505;-88
2023/06/12 01:26:04;;;;;;;5.30;4.23;;;16.40;99.90;;;;;;5117260;28;21028;-90
2023/06/12 01:28:56;;;;;;;4.67;4.17;;;16.40;99.90;;;;;;5115778;28;20582;-88
2023/06/12 01:31:29;;;;;;;5.00;4.50;;;16.40;99.90;;;;;;5116005;28;20537;-88
2023/06/12 01:34:03;;;;;;;4.13;3.70;;;16.30;99.90;;;;;;5116463;28;20446;-88
2023/06/12 01:36:34;;;;;;;8.10;4.63;;;16.20;99.90;;;;;;5117639;28;20480;-88
2023/06/12 01:39:04;;;;;;;6.10;4.50;;;16.30;99.90;;;;;;5119882;28;20448;-89
2023/06/12 01:41:32;;;;;;;4.87;4.03;;;16.20;99.90;;;;;;5123206;28;20444;-89
2023/06/12 01:44:08;;;;;;;5.53;4.87;;;16.00;99.90;;;;;;5120691;28;20842;-88
2023/06/12 01:46:35;;;;;;;5.93;4.87;;;15.90;99.90;;;;;;5116496;28;20478;-88
2023/06/12 01:49:04;;;;;;;5.17;4.30;;;15.90;99.90;;;;;;5117276;28;20461;-89
2023/06/12 01:51:31;;;;;;;5.27;3.93;;;16.00;99.90;;;;;;5119821;28;20443;-89
2023/06/12 01:53:58;;;;;;;6.10;3.87;;;15.90;99.90;;;;;;5120167;28;20470;-88
2023/06/12 01:56:25;;;;;;;4.70;4.03;;;15.90;99.90;;;;;;5120315;28;20454;-89
2023/06/12 01:58:52;;;;;;;5.20;4.20;;;16.00;99.90;;;;;;5118724;28;20483;-88
2023/06/12 02:01:20;;;;;;;4.80;4.33;;;16.00;99.90;;;;;;5115857;28;20436;-90
2023/06/12 02:03:48;;;;;;;5.70;4.70;;;16.00;99.90;;;;;;5117455;28;20466;-91
2023/06/12 02:06:17;;;;;;;5.30;4.30;;;16.10;99.90;;;;;;5116085;28;20468;-88
2023/06/12 02:08:44;;;;;;;4.83;3.73;;;16.20;99.90;;;;;;5115253;28;20473;-88
2023/06/12 02:11:11;;;;;;;4.87;3.80;;;16.10;99.90;;;;;;5119615;28;20448;-89
2023/06/12 02:13:39;;;;;;;6.30;4.50;;;16.00;99.90;;;;;;5122728;28;20451;-90
2023/06/12 02:16:07;;;;;;;6.30;4.20;;;15.90;99.90;;;;;;5118704;28;20524;-88
2023/06/12 02:18:34;;;;;;;7.47;5.07;;;15.80;99.90;;;;;;5126572;28;20457;-89
2023/06/12 02:21:01;;;;;;;5.80;4.63;;;15.80;99.90;;;;;;5131090;28;20448;-89
2023/06/12 02:23:30;;;;;;;6.00;4.60;;;15.90;99.90;;;;;;5124097;28;20469;-89
2023/06/12 02:25:57;;;;;;;6.27;3.77;;;15.80;99.90;;;;;;5123045;28;20432;-90
2023/06/12 02:28:23;;;;;;;5.63;4.10;;;15.80;99.90;;;;;;5121861;28;20470;-89
2023/06/12 02:30:50;;;;;;;5.27;4.40;;;15.70;99.90;;;;;;5122631;28;20759;-89
2023/06/12 02:33:17;;;;;;;4.30;3.77;;;15.60;99.90;;;;;;5127002;28;20450;-91
2023/06/12 02:35:44;;;;;;;5.30;3.47;;;15.60;99.90;;;;;;5130602;28;20467;-89
2023/06/12 02:38:11;;;;;;;5.23;4.70;;;15.50;99.90;;;;;;5123827;28;20494;-90
2023/06/12 02:40:40;;;;;;;5.67;4.03;;;15.50;99.90;;;;;;5121966;28;20467;-89
2023/06/12 02:43:07;;;;;;;5.53;4.07;;;15.40;99.90;;;;;;5128499;28;20483;-91
2023/06/12 02:45:34;;;;;;;5.00;4.00;;;15.50;99.90;;;;;;5130753;28;20445;-89
2023/06/12 02:48:00;;;;;;;5.97;4.57;;;15.40;99.90;;;;;;5132952;28;20474;-89
2023/06/12 02:50:27;;;;;;;7.13;4.13;;;15.50;99.90;;;;;;5130977;28;20444;-89
2023/06/12 02:52:54;;;;;;;4.83;4.03;;;15.50;99.90;;;;;;5136947;27;20435;-89
2023/06/12 02:55:22;;;;;;;4.53;3.87;;;15.50;99.90;;;;;;5134189;27;20449;-89
2023/06/12 02:57:50;;;;;;;4.67;3.70;;;15.40;99.90;;;;;;5137056;27;20465;-90
2023/06/12 03:00:17;;;;;;;5.20;4.70;;;15.40;99.90;;;;;;5135692;28;20431;-91
2023/06/12 03:02:47;;;;;;;6.40;4.90;;;15.40;99.90;;;;;;5137661;27;20459;-90
2023/06/12 03:05:14;;;;;;;6.30;4.50;;;15.40;99.90;;;;;;5137319;27;20425;-92
2023/06/12 03:07:42;;;;;;;8.27;4.83;;;15.30;99.90;;;;;;5135496;27;20518;-91
2023/06/12 03:10:10;;;;;;;5.33;4.07;;;15.40;99.90;;;;;;5137556;27;20452;-90
2023/06/12 03:12:37;;;;;;;5.80;4.30;;;15.40;99.90;;;;;;5137535;27;20439;-90
2023/06/12 03:15:07;;;;;;;5.40;4.50;;;15.30;99.90;;;;;;5138138;27;20443;-91
2023/06/12 03:17:34;;;;;;;5.20;4.33;;;15.20;99.90;;;;;;5137805;27;20464;-91
2023/06/12 03:20:05;;;;;;;5.57;4.53;;;15.20;99.90;;;;;;5141534;27;20456;-92
2023/06/12 03:22:32;;;;;;;5.10;4.10;;;15.10;99.90;;;;;;5142235;27;20484;-91
2023/06/12 03:24:59;;;;;;;5.80;4.20;;;15.10;99.90;;;;;;5142006;27;20435;-92
2023/06/12 03:27:29;;;;;;;4.67;4.17;;;15.10;99.90;;;;;;5142069;27;20460;-91
2023/06/12 03:29:56;;;;;;;5.90;4.47;;;15.20;99.90;;;;;;5141824;27;20424;-91
2023/06/12 03:32:26;;;;;;;5.10;3.70;;;15.10;99.90;;;;;;5141555;27;20504;-92
2023/06/12 03:34:54;;;;;;;5.33;4.27;;;15.10;99.90;;;;;;5140074;27;20427;-90
2023/06/12 03:37:21;;;;;;;5.87;4.60;;;15.00;99.90;;;;;;5140212;27;20477;-91
2023/06/12 03:39:48;;;;;;;5.40;4.47;;;15.00;99.90;;;;;;5140419;28;20435;-91
2023/06/12 03:42:16;;;;;;;5.40;4.90;;;15.00;99.90;;;;;;5139425;28;20909;-92
2023/06/12 03:44:43;;;;;;;5.07;4.20;;;15.00;99.90;;;;;;5138098;28;20428;-90
2023/06/12 03:47:11;;;;;;;5.03;4.40;;;15.00;99.90;;;;;;5136705;28;20482;-90
2023/06/12 03:49:40;;;;;;;5.50;4.77;;;14.90;99.90;;;;;;5141163;27;20423;-91
2023/06/12 03:52:08;;;;;;;7.60;4.63;;;15.00;99.90;;;;;;5141608;27;20470;-91
2023/06/12 03:54:35;;;;;;;4.70;4.07;;;15.00;99.90;;;;;;5140115;27;20445;-91
2023/06/12 03:57:02;;;;;;;4.40;3.90;;;14.90;99.90;;;;;;5141502;27;20458;-91
2023/06/12 03:59:28;;;;;;;6.10;5.13;;;14.90;99.90;;;;;;5140791;27;20443;-92
2023/06/12 04:01:56;;;;;;;5.10;4.40;;;14.90;99.90;;;;;;5140073;27;20426;-91
2023/06/12 04:04:23;;;;;;;5.60;4.80;;;14.90;99.90;;;;;;5141403;27;20462;-92
2023/06/12 04:06:53;;;;;;;5.50;4.10;;;15.00;99.90;;;;;;5141194;27;20459;-91
2023/06/12 04:09:21;;;;;;;4.80;4.30;;;14.90;99.90;;;;;;5141218;27;20429;-91
2023/06/12 04:11:48;;;;;;;5.47;4.80;;;14.90;99.90;;;;;;5141106;27;20531;-92
2023/06/12 04:14:15;;;;;;;4.80;4.20;;;14.90;99.90;;;;;;5140046;27;20451;-89
2023/06/12 04:16:42;;;;;;;6.80;4.80;;;14.90;99.90;;;;;;5138460;28;20443;-90
2023/06/12 04:19:09;;;;;;;5.10;4.50;;;14.90;99.90;;;;;;5138048;27;20423;-89
2023/06/12 04:21:36;;;;;;;5.37;4.63;;;14.90;99.90;;;;;;5138462;28;20449;-91
2023/06/12 04:24:09;;;;;;;5.33;4.03;;;15.00;99.90;;;;;;5139319;27;20486;-90
2023/06/12 04:26:36;;;;;;;7.00;4.10;;;15.00;99.90;;;;;;5138459;28;20438;-90
2023/06/12 04:29:03;;;;;;;4.83;4.33;;;15.10;99.90;;;;;;5138327;28;20465;-90
2023/06/12 04:31:30;;;;;;;5.00;3.93;;;15.10;99.90;;;;;;5138108;27;20981;-89
2023/06/12 04:33:58;;;;;;;6.57;4.60;;;15.20;99.90;;;;;;5140383;27;20428;-91
2023/06/12 04:36:25;;;;;;;4.53;4.13;;;15.10;99.90;;;;;;5140753;27;20498;-91
2023/06/12 04:38:52;;;;;;;5.13;4.50;;;15.20;99.90;;;;;;5140652;27;20705;-90
2023/06/12 04:41:24;;;;;;;4.90;4.23;;;15.20;99.90;;;;;;5140492;27;20448;-91
2023/06/12 04:43:58;;;;;;;5.80;4.30;;;15.20;99.90;;;;;;5140283;27;20474;-89
2023/06/12 04:46:28;;;;;;;5.97;5.07;;;15.20;99.90;;;;;;5138357;27;20458;-90
2023/06/12 04:48:55;;;;;;;5.33;4.50;;;15.20;99.90;;;;;;5140395;27;20520;-93
2023/06/12 04:51:23;;;;;;;6.00;5.33;;;15.20;99.90;;;;;;5139849;27;20436;-92
2023/06/12 04:53:53;;;;;;;5.53;4.60;;;15.20;99.90;;;;;;5139011;27;20454;-92
2023/06/12 04:56:21;;;;;;;7.30;5.27;;;15.10;99.90;;;;;;5132264;28;20465;-90
2023/06/12 04:58:49;;;;;;;11.50;6.60;;;14.90;99.90;;;;;;5132453;28;20503;-90
2023/06/12 05:01:19;;;;;;;6.40;5.20;;;14.90;99.90;;;;;;5137384;27;20506;-90
2023/06/12 05:03:46;;;;;;;8.33;5.47;;;14.90;99.90;;;;;;5138580;27;20495;-92
2023/06/12 05:06:13;;;;;;;7.07;5.43;;;15.00;99.90;;;;;;5139537;27;20418;-93
2023/06/12 05:08:41;;;;;;;7.33;5.83;;;15.10;99.90;;;;;;5137900;27;20469;-91
2023/06/12 05:11:08;;;;;;;6.50;5.17;;;15.20;99.90;;;;;;5140238;27;20447;-94
2023/06/12 05:13:37;;;;;;;6.20;4.97;;;15.30;99.90;;;;;;5140294;27;20437;-94
2023/06/12 05:16:04;;;;;;;5.70;5.00;;;15.30;99.90;;;;;;5140230;27;20441;-94
2023/06/12 05:18:31;;;;;;;11.03;5.23;;;15.30;99.90;;;;;;5139483;27;20474;-93
2023/06/12 05:20:59;;;;;;;5.13;4.33;;;15.40;99.90;;;;;;5139530;27;20485;-92
2023/06/12 05:23:26;;;;;;;4.83;4.30;;;15.40;99.90;;;;;;5139134;27;20456;-93
2023/06/12 05:25:53;;;;;;;5.13;4.63;;;15.50;99.90;;;;;;5138692;27;20525;-93
2023/06/12 05:28:20;;;;;;;5.87;5.37;;;15.50;99.90;;;;;;5138537;27;20459;-93
2023/06/12 05:30:48;;;;;;;5.37;4.70;;;15.50;99.90;;;;;;5138257;28;20523;-91
2023/06/12 05:33:16;;;;;;;5.70;4.73;;;15.50;99.90;;;;;;5136799;27;20465;-91
2023/06/12 05:35:43;;;;;;;4.93;4.10;;;15.40;99.90;;;;;;5139816;27;20460;-92
2023/06/12 05:38:11;;;;;;;4.90;4.07;;;15.40;99.90;;;;;;5139343;27;20511;-94
2023/06/12 05:40:38;;;;;;;7.20;5.00;;;15.50;99.90;;;;;;5138586;27;20467;-91
2023/06/12 05:43:05;;;;;;;5.30;4.80;;;15.50;99.90;;;;;;5137763;27;20459;-91
2023/06/12 05:45:32;;;;;;;5.63;4.87;;;15.60;99.90;;;;;;5137172;27;20440;-92
2023/06/12 05:48:01;;;;;;;5.80;4.47;;;15.60;99.90;;;;;;5138242;27;20533;-91
2023/06/12 05:50:28;;;;;;;6.07;5.00;;;15.70;99.90;;;;;;5132352;28;20461;-88
2023/06/12 05:52:55;;;;;;;5.90;5.30;;;15.70;99.90;;;;;;5133391;27;20441;-93
2023/06/12 05:55:22;;;;;;;8.53;4.83;;;15.80;99.90;;;;;;5137412;27;20477;-94
2023/06/12 05:57:49;;;;;;;5.27;4.77;;;15.70;99.90;;;;;;5138503;27;20465;-93
2023/06/12 06:00:17;;;;;;;6.20;5.00;;;;;;;;;;5138870;27;20531;-93
2023/06/12 06:02:45;;;;;;;6.50;4.83;;;15.70;99.90;;;;;;5139091;27;20471;-94
2023/06/12 06:05:13;;;;;;;4.70;4.17;;;15.90;99.90;;;;;;5136953;27;20480;-93
2023/06/12 06:07:40;;;;;;;5.20;4.70;;;15.90;99.90;;;;;;5136973;27;20517;-95
2023/06/12 06:10:08;;;;;;;5.70;5.10;;;16.00;99.90;;;;;;5135329;28;20526;-92
2023/06/12 06:12:35;;;;;;;6.90;4.90;;;16.00;99.90;;;;;;5132254;28;20449;-94
2023/06/12 06:15:02;;;;;;;6.50;5.07;;;16.20;99.90;;;;;;5128702;28;20473;-93
2023/06/12 06:17:29;;;;;;;5.80;5.20;;;16.20;99.90;;;;;;5127276;28;20489;-93
2023/06/12 06:19:56;;;;;;;5.90;5.07;;;16.40;99.90;;;;;;5126426;28;20460;-92
2023/06/12 06:22:25;;;;;;;7.63;4.87;;;16.60;99.90;;;;;;5127977;28;20464;-93
2023/06/12 06:24:53;;;;;;;5.93;4.27;;;16.80;99.90;;;;;;5127357;28;20518;-92
2023/06/12 06:27:20;;;;;;;5.00;3.87;;;16.90;99.90;;;;;;5129306;28;20495;-93
2023/06/12 06:29:47;;;;;;;5.90;4.77;;;16.70;99.90;;;;;;5134695;28;20462;-93
2023/06/12 06:32:14;;;;;;;5.70;5.20;;;16.60;99.90;;;;;;5136756;27;20448;-95
2023/06/12 06:34:41;;;;;;;7.93;5.03;;;16.60;99.90;;;;;;5137110;27;20450;-94
2023/06/12 06:37:09;;;;;;;5.03;4.53;;;16.60;99.90;;;;;;5137474;27;20470;-94
2023/06/12 06:39:37;;;;;;;5.53;4.43;;;16.70;99.90;;;;;;5161720;22;20490;-50
2023/06/12 06:42:04;;;;;;;5.90;5.30;;;16.70;99.90;;;;;;5091852;28;20474;-49
2023/06/12 06:44:31;;;;;;;6.80;4.47;;;16.80;99.90;;;;;;5090903;28;20568;-47
2023/06/12 06:46:58;;;;;;;4.83;4.33;;;16.80;99.90;;;;;;5089739;28;20973;-46
2023/06/12 06:49:26;;;;;;;7.30;5.53;;;16.90;99.90;;;;;;5089632;28;20482;-48
2023/06/12 06:51:53;;;;;;;5.87;5.23;;;16.90;99.90;;;;;;5091324;28;20452;-48
2023/06/12 06:54:20;;;;;;;6.23;5.10;;;16.80;99.90;;;;;;5117208;22;20603;-92
2023/06/12 06:56:50;;;;;;;5.63;4.47;;;16.70;99.90;;;;;;5117675;28;20459;-94
2023/06/12 06:59:18;;;;;;;7.00;5.30;;;16.70;99.90;;;;;;5117009;28;20560;-93
2023/06/12 07:01:45;;;;;;;6.33;5.20;;;16.80;99.90;;;;;;5116915;28;20421;-94
2023/06/12 07:04:12;;;;;;;7.43;4.67;;;16.90;99.90;;;;;;5114684;28;20473;-93
2023/06/12 07:06:38;;;;;;;7.07;5.70;;;16.80;99.90;;;;;;5128126;22;20453;-49
2023/06/12 07:09:05;;;;;;;6.10;5.50;;;16.80;99.90;;;;;;5111316;28;21012;-50
2023/06/12 07:11:32;;;;;;;5.93;4.80;;;16.70;99.90;;;;;;5111404;28;20437;-50
2023/06/12 07:14:01;;;;;;;7.13;5.40;;;16.80;99.90;;;;;;5109352;28;20536;-53
2023/06/12 07:16:28;;;;;;;6.80;4.70;;;17.00;99.90;;;;;;5111494;28;20470;-50
2023/06/12 07:18:55;;;;;;;5.47;4.87;;;;;;;;;;5111355;28;20527;-49
2023/06/12 07:21:22;;;;;;;6.23;5.00;;;17.40;99.90;;;;;;5111272;28;20521;-49
2023/06/12 07:23:52;;;;;;;6.03;4.70;;;17.40;99.90;;;;;;5110893;28;20520;-49
2023/06/12 07:26:19;;;;;;;5.90;4.83;;;17.40;99.90;;;;;;5110551;28;20984;-49
2023/06/12 07:28:46;;;;;;;5.37;4.70;;;17.50;99.90;;;;;;5111073;28;20448;-50
2023/06/12 07:31:14;;;;;;;7.20;5.23;;;17.60;99.90;;;;;;5110980;28;20472;-49
2023/06/12 07:33:42;;;;;;;7.93;5.50;;;17.80;99.90;;;;;;5110818;28;20450;-49
2023/06/12 07:36:09;;;;;;;6.10;4.87;;;17.90;99.90;;;;;;5110866;28;20445;-48
2023/06/12 07:38:36;;;;;;;5.47;4.63;;;18.00;99.90;;;;;;5110775;28;20436;-49
2023/06/12 07:41:03;;;;;;;6.10;4.50;;;18.10;99.90;;;;;;5111557;28;20452;-49
2023/06/12 07:43:34;;;;;;;6.20;4.97;;;18.10;99.90;;;;;;5111303;28;20533;-48
2023/06/12 07:46:01;;;;;;;5.67;4.33;;;18.20;99.90;;;;;;5109074;28;20462;-52
2023/06/12 07:48:29;;;;;;;5.67;4.87;;;18.40;99.90;;;;;;5110793;28;20444;-48
2023/06/12 07:50:56;;;;;;;5.60;5.03;;;18.40;99.90;;;;;;5111209;28;20518;-48
2023/06/12 07:53:23;;;;;;;5.43;4.93;;;18.50;99.90;;;;;;5109839;28;20872;-53
2023/06/12 07:55:50;;;;;;;5.43;4.47;;;18.50;99.90;;;;;;5110698;28;20490;-50
2023/06/12 07:58:17;;;;;;;5.20;4.20;;;18.60;99.90;;;;;;5111213;28;20478;-48
2023/06/12 08:00:44;;;;;;;5.53;4.97;;;18.60;99.90;;;;;;5111104;28;20456;-50
2023/06/12 08:03:15;;;;;;;6.37;4.70;;;18.60;99.90;;;;;;5111094;28;20469;-48
2023/06/12 08:05:43;;;;;;;6.07;4.63;;;18.60;99.90;;;;;;5109750;28;21040;-50
2023/06/12 08:08:12;;;;;;;6.47;5.10;;;18.70;99.90;;;;;;5114431;28;20539;-52
2023/06/12 08:10:39;;;;;;;6.80;5.00;;;18.90;99.90;;;;;;5114903;28;20907;-49
2023/06/12 08:13:06;;;;;;;6.60;5.07;;;19.10;99.90;;;;;;5114809;28;20439;-50
2023/06/12 08:15:32;;;;;;;6.80;4.40;;;19.20;99.90;;;;;;5114934;28;20494;-49
2023/06/12 08:17:59;;;;;;;6.40;5.07;;;19.20;99.90;;;;;;5114546;28;20524;-49
2023/06/12 08:20:27;;;;;;;5.80;5.20;;;19.30;99.90;;;;;;5114717;28;20445;-52
2023/06/12 08:22:57;;;;;;;5.80;5.00;;;19.30;99.90;;;;;;5114804;28;20442;-49
2023/06/12 08:25:25;;;;;;;4.87;4.23;;;19.40;99.90;;;;;;5112692;28;20512;-53
2023/06/12 08:27:53;;;;;;;4.70;4.20;;;19.40;99.90;;;;;;5112955;28;20443;-49
2023/06/12 08:30:20;;;;;;;6.23;5.00;;;19.50;99.90;;;;;;5113117;28;20806;-50
2023/06/12 08:32:48;;;;;;;5.00;4.20;;;19.60;99.90;;;;;;5112734;28;20981;-55
2023/06/12 08:35:15;;;;;;;4.83;4.23;;;19.50;99.90;;;;;;5112174;28;20474;-55
2023/06/12 08:37:42;;;;;;;4.80;4.20;;;19.70;99.90;;;;;;5112656;28;20476;-49
2023/06/12 08:40:11;;;;;;;5.20;4.70;;;19.90;99.90;;;;;;5114047;28;20530;-48
2023/06/12 08:42:39;;;;;;;6.33;4.60;;;20.00;99.90;;;;;;5114423;28;20437;-51
2023/06/12 08:45:09;;;;;;;11.67;5.30;;;19.90;99.90;;;;;;5112817;28;20510;-50
2023/06/12 08:47:38;;;;;;;5.80;5.20;;;20.00;99.90;;;;;;5113386;28;20917;-49
2023/06/12 08:50:06;;;;;;;12.23;4.33;;;20.30;99.90;;;;;;5114047;28;21012;-49
2023/06/12 08:52:33;;;;;;;9.10;4.80;;;20.10;99.90;;;;;;5113947;28;20478;-50
2023/06/12 08:55:03;;;;;;;8.03;4.37;;;20.20;99.90;;;;;;5112458;28;20450;-48
2023/06/12 08:57:31;;;;;;;7.20;4.77;;;20.30;99.90;;;;;;5114003;28;20500;-50
2023/06/12 08:59:58;;;;;;;6.63;4.20;;;20.40;99.90;;;;;;5113925;28;20478;-51
2023/06/12 09:02:26;;;;;;;4.60;4.20;;;20.60;99.90;;;;;;5114027;28;20521;-49
2023/06/12 09:05:01;;;;;;;8.90;4.80;;;20.80;99.90;;;;;;5111787;28;20517;-50
2023/06/12 09:07:29;;;;;;;6.50;4.13;;;21.00;99.90;;;;;;5113065;28;20549;-49
2023/06/12 09:09:56;;;;;;;5.37;4.40;;;21.10;99.90;;;;;;5114009;28;21017;-50
2023/06/12 09:12:23;;;;;;;5.70;4.70;;;21.20;99.90;;;;;;5113477;28;20934;-49
2023/06/12 09:14:52;;;;;;;6.07;4.93;;;21.20;99.90;;;;;;5113634;28;20872;-49
2023/06/12 09:17:19;;;;;;;7.90;4.80;;;21.30;99.90;;;;;;5113063;28;20447;-50
2023/06/12 09:19:47;;;;;;;6.03;4.50;;;21.30;99.90;;;;;;5113461;28;20482;-49
2023/06/12 09:22:14;;;;;;;5.43;4.47;;;21.50;99.90;;;;;;5113331;28;20439;-50
2023/06/12 09:24:42;;;;;;;7.60;5.30;;;21.40;99.90;;;;;;5112745;28;20514;-51
2023/06/12 09:27:09;;;;;;;5.23;4.30;;;21.60;99.90;;;;;;5112830;28;20447;-49
2023/06/12 09:29:38;;;;;;;7.57;5.20;;;21.60;99.90;;;;;;5113665;28;20519;-50
2023/06/12 09:32:09;;;;;;;8.00;4.70;;;21.60;99.90;;;;;;5113225;28;20457;-54
2023/06/12 09:34:36;;;;;;;6.03;4.57;;;21.70;99.90;;;;;;5112821;28;20478;-53
2023/06/12 09:37:06;;;;;;;5.40;4.00;;;21.90;99.90;;;;;;5112898;28;20988;-49
2023/06/12 09:39:33;;;;;;;5.60;4.70;;;21.90;99.90;;;;;;5113163;28;20438;-49
2023/06/12 09:42:01;;;;;;;6.80;5.00;;;21.90;99.90;;;;;;5113159;28;20441;-50
2023/06/12 09:44:30;;;;;;;7.07;4.53;;;22.00;99.90;;;;;;5112706;28;20486;-50
2023/06/12 09:47:01;;;;;;;5.80;4.77;;;22.00;99.90;;;;;;5111234;28;20524;-50
2023/06/12 09:49:29;;;;;;;11.80;4.80;;;22.00;99.90;;;;;;5110909;28;20521;-51
2023/06/12 09:52:00;;;;;;;7.60;4.77;;;22.10;99.90;;;;;;5112871;28;20916;-52
2023/06/12 09:54:30;;;;;;;5.43;4.90;;;22.10;99.90;;;;;;5111117;28;20832;-50
2023/06/12 09:56:59;;;;;;;4.67;4.10;;;22.20;99.90;;;;;;5112425;28;20443;-52
2023/06/12 09:59:28;;;;;;;5.00;4.30;;;22.30;99.90;;;;;;5112636;28;20443;-49
2023/06/12 10:02:03;;;;;;;5.53;4.90;;;22.40;99.90;;;;;;5112930;28;20464;-49
2023/06/12 10:04:38;;;;;;;5.40;4.50;;;22.50;99.90;;;;;;5110902;28;20492;-50
2023/06/12 10:07:12;;;;;;;5.30;4.60;;;22.70;99.90;;;;;;5112360;28;20569;-49
2023/06/12 10:09:40;;;;;;;5.17;4.37;;;22.70;99.90;;;;;;5111474;28;20446;-49
2023/06/12 10:12:08;;;;;;;6.20;4.97;;;22.80;99.90;;;;;;5110954;28;20442;-52
2023/06/12 10:14:37;;;;;;;7.27;4.07;;;22.90;99.90;;;;;;5111813;28;20520;-49
2023/06/12 10:17:05;;;;;;;5.80;5.20;;;22.90;99.90;;;;;;5112650;28;20443;-53
2023/06/12 10:19:36;;;;;;;6.93;4.40;;;22.90;99.90;;;;;;5112568;28;20870;-49
2023/06/12 10:22:04;;;;;;;5.67;4.77;;;22.90;99.90;;;;;;5110657;28;20537;-51
2023/06/12 10:24:32;;;;;;;5.50;4.63;;;22.90;99.90;;;;;;5112070;28;20884;-50
2023/06/12 10:26:59;;;;;;;6.50;4.23;;;23.00;99.90;;;;;;5112207;28;20515;-49
2023/06/12 10:29:27;;;;;;;5.13;4.10;;;23.10;99.90;;;;;;5111908;28;20728;-49
2023/06/12 10:31:54;;;;;;;5.73;4.10;;;23.10;99.90;;;;;;5110500;28;20438;-50
2023/06/12 10:34:21;;;;;;;4.30;3.50;;;23.10;99.90;;;;;;5110435;28;20538;-52
2023/06/12 10:36:49;;;;;;;4.97;4.43;;;23.00;99.90;;;;;;5111167;28;20462;-51
2023/06/12 10:39:17;;;;;;;6.93;4.13;;;23.00;99.90;;;;;;5110597;28;20925;-50
2023/06/12 10:41:56;;;;;;;5.97;5.17;;;23.00;99.90;;;;;;5110980;28;20445;-50
2023/06/12 10:44:37;;;;;;;5.20;4.57;;;23.10;99.90;;;;;;5109562;28;20458;-54
2023/06/12 10:47:04;;;;;;;5.80;4.70;;;23.20;99.90;;;;;;5108160;28;20488;-51
2023/06/12 10:49:52;;;;;;;6.00;4.93;;;23.30;99.90;;;;;;5108103;28;20435;-51
2023/06/12 10:52:21;;;;;;;4.53;4.07;;;23.10;99.20;;;;;;5107874;28;20518;-50
2023/06/12 10:54:49;;;;;;;6.77;5.10;;;23.10;99.60;;;;;;5110943;28;20514;-51
2023/06/12 10:57:27;;;;;;;7.17;3.63;;;23.20;99.90;;;;;;5111378;28;20474;-49
2023/06/12 10:59:57;;;;;;;4.40;3.77;;;23.10;98.10;;;;;;5111890;28;20466;-52
2023/06/12 11:02:24;;;;;;;4.83;3.97;;;23.10;99.90;;;;;;5111663;28;21006;-54
2023/06/12 11:04:51;;;;;;;6.63;4.10;;;23.20;99.90;;;;;;5109374;28;20996;-51
2023/06/12 11:07:18;;;;;;;5.57;4.00;;;23.10;98.60;;;;;;5111098;28;20494;-50
2023/06/12 11:09:46;;;;;;;4.90;4.30;;;23.20;99.90;;;;;;5111483;28;20447;-48
2023/06/12 11:12:13;;;;;;;4.90;4.30;;;23.30;99.90;;;;;;5111376;28;20438;-48
2023/06/12 11:14:40;;;;;;;5.57;4.33;;;23.30;99.90;;;;;;5109951;28;20490;-52
2023/06/12 11:17:06;;;;;;;4.95;3.65;;;23.30;97.30;;;;;;5109827;28;20522;-51
2023/06/12 11:19:33;;;;;;;5.10;3.40;;;23.30;99.90;;;;;;5111286;28;20243;-49
2023/06/12 11:22:03;;;;;;;4.80;3.90;;;23.40;97.90;;;;;;5111480;28;20623;-50
2023/06/12 11:24:30;;;;;;;4.90;3.97;;;23.40;98.60;;;;;;5110733;28;20862;-50
2023/06/12 11:27:00;;;;;;;6.80;4.30;;;23.40;96.00;;;;;;5111184;28;20566;-51
2023/06/12 11:29:29;;;;;;;5.77;3.90;;;23.30;96.50;;;;;;5111561;28;20455;-49
2023/06/12 11:32:02;;;;;;;5.20;4.13;;;23.50;97.20;;;;;;5111299;28;20443;-52
2023/06/12 11:34:34;;;;;;;4.17;3.20;;;23.50;99.90;;;;;;5111202;28;20473;-49
2023/06/12 11:37:13;;;;;;;3.93;3.33;;;23.60;98.00;;;;;;5110881;28;20441;-51
2023/06/12 11:39:40;;;;;;;5.03;3.43;;;23.70;99.90;;;;;;5111283;28;20479;-51
2023/06/12 11:42:10;;;;;;;4.80;3.30;;;23.70;97.20;;;;;;5114837;28;20442;-54
2023/06/12 11:44:37;;;;;;;5.07;3.80;;;23.60;96.40;;;;;;5115245;28;20462;-51
2023/06/12 11:47:06;;;;;;;4.30;3.73;;;23.70;98.30;;;;;;5113248;28;20531;-51
2023/06/12 11:49:35;;;;;;;6.57;3.90;;;23.80;99.90;;;;;;5115310;28;20936;-50
2023/06/12 11:52:02;;;;;;;4.67;3.70;;;23.90;98.70;;;;;;5115584;28;20519;-48
2023/06/12 11:54:29;;;;;;;5.57;3.87;;;23.90;99.20;;;;;;5114995;28;20896;-49
2023/06/12 11:56:56;;;;;;;4.67;3.50;;;23.90;95.40;;;;;;5114998;28;20886;-51
2023/06/12 11:59:35;;;;;;;3.87;3.40;;;23.90;97.80;;;;;;5115272;28;20442;-48
2023/06/12 12:02:04;;;;;;;4.40;3.40;;;23.90;98.70;;;;;;5115363;28;20563;-52
2023/06/12 12:04:31;;;;;;;4.50;3.10;;;23.90;98.60;;;;;;5113180;28;20455;-52
2023/06/12 12:06:59;;;;;;;4.37;3.40;;;23.80;94.90;;;;;;5114791;28;20479;-50
2023/06/12 12:09:27;;;;;;;4.17;3.40;;;23.90;99.10;;;;;;5113136;28;20451;-48
2023/06/12 12:11:54;;;;;;;5.63;3.70;;;23.90;96.30;;;;;;5114984;28;20469;-49
2023/06/12 12:14:25;;;;;;;5.17;3.60;;;23.90;96.10;;;;;;5114694;28;20458;-51
2023/06/12 12:16:52;;;;;;;7.40;4.07;;;23.80;93.70;;;;;;5114779;28;20484;-49
2023/06/12 12:19:26;;;;;;;5.77;4.03;;;23.90;95.70;;;;;;5114832;28;20434;-52
2023/06/12 12:21:53;;;;;;;4.67;3.63;;;24.00;95.30;;;;;;5114790;28;20450;-48
2023/06/12 12:24:20;;;;;;;4.20;3.70;;;24.00;97.10;;;;;;5114321;28;20466;-48
2023/06/12 12:26:51;;;;;;;4.10;3.00;;;24.10;96.70;;;;;;5114472;28;20476;-48
2023/06/12 12:29:18;;;;;;;4.13;3.67;;;23.90;96.70;;;;;;5114648;28;20435;-50
2023/06/12 12:31:46;;;;;;;4.60;3.60;;;24.00;95.70;;;;;;5114783;28;20525;-47
2023/06/12 12:34:14;;;;;;;5.30;3.60;;;24.10;95.90;;;;;;5114307;28;20833;-48
2023/06/12 12:36:41;;;;;;;5.40;4.23;;;24.10;96.90;;;;;;5114534;28;20439;-47
2023/06/12 12:39:09;;;;;;;11.87;4.43;;;24.10;94.40;;;;;;5114216;28;20979;-51
2023/06/12 12:41:37;;;;;;;4.90;3.40;;;24.20;94.70;;;;;;5114528;28;20447;-52
2023/06/12 12:44:03;;;;;;;4.70;3.97;;;24.20;98.60;;;;;;5113827;28;20545;-48
2023/06/12 12:46:31;;;;;;;5.33;3.80;;;24.10;94.80;;;;;;5112494;28;20570;-53
2023/06/12 12:48:59;;;;;;;5.00;3.60;;;24.20;94.60;;;;;;5114393;28;20992;-47
2023/06/12 12:51:29;;;;;;;6.57;3.93;;;24.20;97.30;;;;;;5113196;28;20883;-51
2023/06/12 12:53:56;;;;;;;4.33;3.27;;;24.10;95.60;;;;;;5114310;28;20453;-49